METAR Data

Data at: 2215 UTC 01 Dec 2021

METAR for:KPVD (Providence/Green Mem, RI, US)
Text:KPVD 012151Z 22004KT 10SM FEW050 BKN250 06/M04 A3012 RMK AO2 SLP200 T00611039
Temperature: 6.1°C ( 43°F)
Dewpoint: -3.9°C ( 25°F) [RH = 49%]
Pressure (altimeter):30.12 inches Hg (1020.1 mb) [Sea level pressure: 1020.0 mb]
Winds:from the SW (220 degrees) at 5 MPH (4 knots; 2.1 m/s)
Visibility:10 or more sm (16+ km)
Ceiling:25000 feet AGL
Clouds: few clouds at 5000 feet AGL, broken clouds at 25000 feet AGL